Time;durP1;ratioP1;P1;durP2;ratioP2;P2;SDS_P1;SDS_P2;PMS_P1;PMS_P2;Temp;Humidity;BMP_temperature;BMP_pressure;BME280_temperature;BME280_humidity;BME280_pressure;Samples;Min_cycle;Max_cycle;Signal;HPM_P1;HPM_P2
2022/01/22 00:01:46;;;;;;;18.83;8.48;;;;;;;3.29;95.01;101843.03;5097475;28;20051;-75
2022/01/22 00:04:12;;;;;;;20.75;9.15;;;;;;;3.34;94.63;101843.53;5097013;28;20036;-74
2022/01/22 00:06:37;;;;;;;20.08;8.10;;;;;;;3.25;94.88;101840.75;5096892;28;20114;-74
2022/01/22 00:09:04;;;;;;;21.13;7.75;;;;;;;3.27;95.09;101841.47;5096583;28;20103;-74
2022/01/22 00:11:35;;;;;;;23.73;8.48;;;;;;;3.25;94.71;101838.94;5096597;28;20047;-74
2022/01/22 00:16:44;;;;;;;17.70;7.57;;;;;;;3.27;94.97;101834.34;5096183;28;20119;-75
2022/01/22 00:19:10;;;;;;;21.13;8.30;;;;;;;3.30;95.09;101844.75;5096508;28;20127;-74
2022/01/22 00:21:36;;;;;;;27.20;8.35;;;;;;;3.28;94.93;101844.00;5096464;28;20032;-74
2022/01/22 00:24:02;;;;;;;18.02;9.00;;;;;;;3.34;94.77;101843.53;5094834;28;20035;-74
2022/01/22 00:26:28;;;;;;;23.58;7.85;;;;;;;3.36;94.62;101838.09;5096227;28;20093;-73
2022/01/22 00:28:53;;;;;;;21.50;8.30;;;;;;;3.23;94.41;101848.84;5096425;28;20031;-74
2022/01/22 00:31:19;;;;;;;23.67;9.93;;;;;;;3.24;94.93;101849.69;5096129;28;20691;-74
2022/01/22 00:33:44;;;;;;;18.42;8.88;;;;;;;3.21;95.08;101847.31;5095918;28;20115;-74
2022/01/22 00:36:09;;;;;;;21.02;8.80;;;;;;;3.23;95.22;101840.88;5095696;28;20036;-74
2022/01/22 00:38:35;;;;;;;21.60;7.65;;;;;;;3.21;95.25;101844.66;5095895;28;20036;-74
2022/01/22 00:41:00;;;;;;;16.13;7.27;;;;;;;3.20;95.20;101838.47;5095568;28;20028;-74
2022/01/22 00:43:26;;;;;;;19.13;7.83;;;;;;;3.21;95.56;101834.84;5095762;28;20038;-74
2022/01/22 00:45:51;;;;;;;21.92;8.35;;;;;;;3.16;95.63;101837.03;5094387;28;20361;-74
2022/01/22 00:48:17;;;;;;;20.02;9.10;;;;;;;3.19;95.81;101833.25;5095606;28;20059;-75
2022/01/22 00:50:43;;;;;;;18.42;8.95;;;;;;;3.19;95.52;101833.25;5093961;28;20031;-74
2022/01/22 00:53:09;;;;;;;18.75;8.80;;;;;;;3.20;95.52;101838.47;5095271;28;20036;-75
2022/01/22 00:55:34;;;;;;;20.65;8.25;;;;;;;3.19;95.62;101830.59;5094350;28;20039;-75
2022/01/22 00:58:00;;;;;;;20.25;7.72;;;;;;;3.15;95.77;101827.34;5095145;28;20055;-74
2022/01/22 01:00:26;;;;;;;25.90;10.40;;;;;;;3.17;95.75;101828.06;5095499;28;20097;-74
2022/01/22 01:02:51;;;;;;;21.45;8.77;;;;;;;3.16;95.97;101825.53;5095809;28;20446;-74
2022/01/22 01:05:17;;;;;;;27.05;10.35;;;;;;;3.13;95.31;101826.59;5095243;28;20091;-74
2022/01/22 01:07:42;;;;;;;25.52;8.77;;;;;;;3.20;95.67;101827.81;5095378;28;20028;-74
2022/01/22 01:10:12;;;;;;;19.50;8.73;;;;;;;3.18;95.87;101824.44;5095433;28;20378;-74
2022/01/22 01:12:39;;;;;;;19.73;7.82;;;;;;;3.14;95.89;101829.16;5094179;28;20920;-73
2022/01/22 01:32:09;;;;;;;26.95;9.10;;;;;;;3.20;95.70;101829.63;5095392;28;20036;-74
2022/01/22 01:34:29;;;;;;;27.45;9.23;;;;;;;3.08;96.20;101837.63;5094626;28;20117;-74
2022/01/22 01:36:54;;;;;;;27.70;11.17;;;;;;;3.14;96.21;101838.94;5094861;28;20470;-74
2022/01/22 01:39:30;;;;;;;26.83;9.90;;;;;;;3.07;96.07;101833.25;5094784;28;20403;-75
2022/01/22 01:42:01;;;;;;;22.05;9.60;;;;;;;3.09;96.45;101841.13;5094804;28;20028;-74
2022/01/22 01:44:27;;;;;;;21.63;10.13;;;;;;;3.09;96.25;101836.66;5094688;28;20032;-74
2022/01/22 01:46:57;;;;;;;18.50;9.00;;;;;;;3.17;96.41;101832.53;5094705;28;20477;-73
2022/01/22 01:49:24;;;;;;;26.48;10.68;;;;;;;3.14;96.06;101830.97;5094354;28;20107;-74
2022/01/22 01:51:49;;;;;;;32.22;10.25;;;;;;;3.08;96.09;101834.94;5094218;28;20139;-73
2022/01/22 01:59:38;;;;;;;22.65;9.90;;;;;;;3.07;96.29;101838.56;5094113;28;20051;-73
2022/01/22 02:02:04;;;;;;;24.42;9.40;;;;;;;2.98;96.25;101831.34;5094577;28;20041;-73
2022/01/22 02:04:30;;;;;;;;;;;;;;;2.98;96.44;101830.50;5092631;28;20040;-74
2022/01/22 02:06:56;;;;;;;20.70;7.78;;;;;;;3.00;96.57;101826.75;5094205;28;19999;-74
2022/01/22 02:09:21;;;;;;;;;;;;;;;3.01;96.74;101836.44;5094458;28;20119;-74
2022/01/22 02:11:55;;;;;;;21.15;8.75;;;;;;;3.02;96.49;101839.94;5092945;28;20010;-74
2022/01/22 02:25:25;;;;;;;25.23;10.98;;;;;;;3.02;96.69;101822.16;5093678;28;20448;-74
2022/01/22 02:27:50;;;;;;;23.95;9.45;;;;;;;3.00;96.59;101826.75;5093882;28;20367;-75
2022/01/22 02:30:22;;;;;;;31.15;9.60;;;;;;;3.03;96.94;101831.84;5093474;28;20089;-75
2022/01/22 02:35:47;;;;;;;27.00;10.25;;;;;;;3.05;96.80;101831.69;5093792;28;20036;-75
2022/01/22 02:38:18;;;;;;;26.13;10.90;;;;;;;3.07;96.85;101827.94;5093396;28;20340;-75
2022/01/22 02:40:48;;;;;;;27.42;10.98;;;;;;;3.07;96.85;101824.41;5093589;28;20032;-75
2022/01/22 02:43:15;;;;;;;30.80;11.52;;;;;;;3.03;96.94;101826.50;5093340;28;20028;-75
2022/01/22 02:45:44;;;;;;;32.03;12.23;;;;;;;3.01;97.13;101823.13;5093193;28;20099;-75
2022/01/22 02:48:16;;;;;;;32.25;12.65;;;;;;;3.04;97.17;101828.19;5093628;28;20116;-75
2022/01/22 02:50:42;;;;;;;28.27;12.13;;;;;;;3.05;97.24;101819.22;5093636;28;20032;-75
2022/01/22 02:53:11;;;;;;;31.02;12.65;;;;;;;3.06;97.09;101820.91;5093641;28;20040;-75
2022/01/22 02:55:37;;;;;;;32.95;12.40;;;;;;;3.07;97.30;101821.75;5093324;28;20035;-76
2022/01/22 02:58:02;;;;;;;;;;;;;;;3.05;97.15;101815.69;5093187;28;20445;-75
2022/01/22 03:00:28;;;;;;;25.67;10.02;;;;;;;3.06;97.16;101818.25;5093154;28;19912;-75
2022/01/22 03:02:53;;;;;;;26.80;12.15;;;;;;;3.06;97.06;101820.91;5093161;28;20036;-74
2022/01/22 03:05:20;;;;;;;25.27;10.75;;;;;;;3.07;97.27;101830.59;5091629;28;20036;-75
2022/01/22 03:07:50;;;;;;;29.90;11.43;;;;;;;3.09;97.32;101836.66;5093267;28;20077;-75
2022/01/22 03:10:20;;;;;;;31.55;12.13;;;;;;;3.07;97.36;101837.72;5093548;28;20459;-75
2022/01/22 03:18:10;;;;;;;26.70;11.18;;;;;;;3.11;97.26;101828.53;5097446;28;20046;-75
2022/01/22 03:21:14;;;;;;;24.40;9.90;;;;;;;3.11;97.25;101820.56;5097154;28;20024;-75
2022/01/22 03:29:20;;;;;;;31.10;9.63;;;;;;;3.14;97.81;101821.16;5054474;28;20039;-75
2022/01/22 03:31:46;;;;;;;29.15;11.35;;;;;;;3.10;97.39;101825.03;5081032;28;20447;-75
2022/01/22 03:34:13;;;;;;;26.27;11.10;;;;;;;3.09;97.46;101839.31;5095837;28;20482;-76
2022/01/22 03:36:38;;;;;;;28.67;10.57;;;;;;;3.09;97.24;101839.31;5096727;28;20032;-76
2022/01/22 03:39:07;;;;;;;26.20;11.52;;;;;;;3.15;97.34;101830.00;5097182;28;20094;-75
2022/01/22 03:41:33;;;;;;;28.73;11.25;;;;;;;3.14;97.27;101831.81;5097404;28;20137;-75
2022/01/22 03:43:58;;;;;;;28.60;11.20;;;;;;;3.13;97.49;101831.94;5097244;28;20028;-75
2022/01/22 03:46:25;;;;;;;29.13;10.57;;;;;;;3.19;97.39;101841.25;5097247;28;20062;-75
2022/01/22 03:48:50;;;;;;;27.25;10.82;;;;;;;3.16;97.03;101846.81;5097028;28;20089;-75
2022/01/22 03:51:16;;;;;;;28.90;11.85;;;;;;;3.14;97.38;101837.13;5097549;28;20039;-75
2022/01/22 03:53:42;;;;;;;;;;;;;;;3.15;97.36;101843.31;5095810;28;20542;-75
2022/01/22 03:56:09;;;;;;;26.95;10.98;;;;;;;3.16;97.32;101837.03;5096881;28;19908;-75
2022/01/22 03:58:38;;;;;;;28.80;12.40;;;;;;;3.21;97.46;101839.31;5095093;28;20055;-75
2022/01/22 04:01:48;;;;;;;30.98;12.38;;;;;;;3.19;97.75;101843.91;5096576;28;20050;-75
2022/01/22 04:04:16;;;;;;;27.50;10.82;;;;;;;3.21;97.31;101842.00;5096709;28;20035;-75
2022/01/22 04:09:15;;;;;;;38.67;12.23;;;;;;;3.26;97.42;101842.44;5097616;28;20036;-75
2022/01/22 04:11:44;;;;;;;28.33;11.85;;;;;;;3.26;97.45;101842.44;5098489;28;20071;-75
2022/01/22 04:14:17;;;;;;;35.65;13.18;;;;;;;3.27;97.47;101844.97;5096840;28;20088;-75
2022/01/22 04:16:56;;;;;;;28.83;11.30;;;;;;;3.30;97.89;101844.75;5096207;28;20433;-75
2022/01/22 04:24:52;;;;;;;29.75;12.13;;;;;;;3.36;97.56;101840.75;5096467;28;20100;-74
2022/01/22 04:27:23;;;;;;;34.67;12.43;;;;;;;3.31;97.50;101843.78;5096288;28;20032;-74
2022/01/22 04:29:50;;;;;;;30.35;12.50;;;;;;;3.33;97.34;101846.31;5096303;28;20034;-74
2022/01/22 04:32:16;;;;;;;31.45;12.05;;;;;;;3.34;97.77;101840.88;5096402;28;20024;-74
2022/01/22 04:34:42;;;;;;;28.00;12.15;;;;;;;3.35;97.63;101836.38;5094989;28;20047;-74
2022/01/22 04:37:08;;;;;;;29.83;11.60;;;;;;;3.36;97.35;101835.41;5096310;28;20507;-74
2022/01/22 04:39:36;;;;;;;28.05;11.77;;;;;;;3.38;97.53;101838.81;5096284;28;20032;-74
2022/01/22 04:42:02;;;;;;;33.45;12.43;;;;;;;3.37;97.58;101840.63;5094931;28;20039;-75
2022/01/22 04:44:33;;;;;;;31.20;11.40;;;;;;;3.38;97.33;101842.31;5094800;28;20094;-75
2022/01/22 04:54:59;;;;;;;26.38;10.02;;;;;;;3.51;97.50;101843.97;5096023;28;20501;-75
2022/01/22 04:57:25;;;;;;;28.23;10.65;;;;;;;3.54;97.25;101844.59;5094244;28;20035;-75
2022/01/22 04:59:50;;;;;;;;;;;;;;;3.56;97.57;101847.97;5095863;28;20039;-76
2022/01/22 05:02:16;;;;;;;34.08;11.27;;;;;;;3.59;97.52;101845.03;5095579;28;19912;-75
2022/01/22 05:04:41;;;;;;;22.02;10.65;;;;;;;3.60;97.45;101849.41;5095887;28;20050;-75
2022/01/22 05:07:06;;;;;;;29.70;10.50;;;;;;;3.58;97.40;101848.72;5095392;28;20032;-76
2022/01/22 05:09:32;;;;;;;28.50;10.73;;;;;;;3.60;97.18;101846.72;5093892;28;20732;-76
2022/01/22 05:11:58;;;;;;;30.27;11.57;;;;;;;3.63;97.36;101849.16;5094791;28;20125;-76
2022/01/22 05:14:24;;;;;;;;;;;;;;;3.61;97.44;101850.25;5095349;28;20028;-76
2022/01/22 05:16:50;;;;;;;32.10;11.02;;;;;;;3.66;97.37;101843.56;5093451;28;19911;-76
2022/01/22 05:19:24;;;;;;;36.38;13.07;;;;;;;3.64;97.41;101858.00;5093236;28;20031;-75
2022/01/22 05:21:51;;;;;;;29.35;11.30;;;;;;;3.68;97.57;101854.97;5095064;28;20032;-76
2022/01/22 05:24:22;;;;;;;31.92;11.73;;;;;;;3.68;97.29;101862.97;5094714;28;20474;-76
2022/01/22 05:39:29;;;;;;;35.42;12.23;;;;;;;3.79;97.82;101844.25;5093380;28;20555;-76
2022/01/22 05:41:57;;;;;;;51.22;12.02;;;;;;;3.80;97.50;101853.09;5093365;28;20043;-76
2022/01/22 05:44:23;;;;;;;34.75;12.95;;;;;;;3.75;97.33;101855.31;5094439;28;20448;-75
2022/01/22 05:46:50;;;;;;;29.67;10.95;;;;;;;3.79;97.34;101849.59;5094344;28;20024;-75
2022/01/22 05:49:16;;;;;;;31.00;12.20;;;;;;;3.79;97.19;101849.59;5093227;28;20047;-76
2022/01/22 05:51:45;;;;;;;38.10;12.02;;;;;;;3.78;97.41;101849.72;5094223;28;20020;-76
2022/01/22 05:54:43;;;;;;;33.72;12.18;;;;;;;3.76;97.58;101849.84;5093079;28;20390;-76
2022/01/22 05:59:45;;;;;;;30.13;10.38;;;;;;;3.76;97.39;101855.16;5093933;28;20051;-75
2022/01/22 06:02:13;;;;;;;28.88;10.02;;;;;;;3.90;97.08;101863.88;5092655;28;20020;-75
2022/01/22 06:04:40;;;;;;;32.17;9.80;;;;;;;3.82;97.37;101869.81;5094219;28;20024;-75
2022/01/22 06:07:08;;;;;;;30.02;10.35;;;;;;;3.78;97.25;101863.88;5094147;28;20032;-75
2022/01/22 06:09:37;;;;;;;31.00;11.15;;;;;;;3.81;97.51;101874.31;5094153;28;20043;-75
2022/01/22 06:14:32;;;;;;;28.95;9.13;;;;;;;3.90;97.59;101879.88;5094104;28;20545;-76
2022/01/22 06:16:58;;;;;;;31.38;10.68;;;;;;;3.84;97.26;101879.41;5093884;28;20038;-76
2022/01/22 06:19:23;;;;;;;27.55;9.77;;;;;;;3.89;97.29;101876.34;5093806;28;20039;-76
2022/01/22 06:21:51;;;;;;;29.80;9.18;;;;;;;3.89;97.12;101870.19;5093847;28;20071;-75
2022/01/22 06:24:20;;;;;;;31.63;10.82;;;;;;;3.87;97.73;101880.97;5093886;28;20032;-76
2022/01/22 06:26:46;;;;;;;31.42;9.82;;;;;;;3.85;97.48;101882.91;5092518;28;20047;-76
2022/01/22 06:29:12;;;;;;;26.80;9.52;;;;;;;3.86;97.68;101886.44;5094136;28;20027;-75
2022/01/22 06:31:37;;;;;;;27.80;8.82;;;;;;;3.84;97.55;101889.22;5093262;28;20032;-75
2022/01/22 06:34:04;;;;;;;32.42;9.90;;;;;;;3.86;97.60;101884.59;5093733;28;20028;-75
2022/01/22 06:36:30;;;;;;;30.65;9.05;;;;;;;3.82;97.26;101883.16;5093421;28;20036;-75
2022/01/22 06:39:09;;;;;;;29.08;9.85;;;;;;;3.90;97.41;101893.22;5093561;28;20473;-76
2022/01/22 06:41:47;;;;;;;28.88;8.68;;;;;;;3.88;97.70;101897.81;5093214;28;20559;-75
2022/01/22 06:44:24;;;;;;;33.90;9.80;;;;;;;3.85;97.65;101901.56;5093570;28;20029;-75
2022/01/22 06:46:52;;;;;;;25.10;8.70;;;;;;;3.84;97.65;101910.53;5093908;28;20348;-75
2022/01/22 06:49:17;;;;;;;41.15;11.68;;;;;;;3.92;97.63;101904.59;5092842;28;20484;-76
2022/01/22 06:51:43;;;;;;;37.73;10.57;;;;;;;3.89;97.59;101905.69;5093113;28;20035;-76
2022/01/22 06:54:10;;;;;;;37.10;8.88;;;;;;;3.85;97.59;101914.91;5093028;28;20331;-75
2022/01/22 06:56:37;;;;;;;38.45;10.93;;;;;;;3.84;97.60;101911.41;5093235;28;20467;-75
2022/01/22 06:59:04;;;;;;;27.52;9.18;;;;;;;3.86;97.88;101913.94;5091761;28;20059;-76
2022/01/22 07:01:30;;;;;;;25.27;9.68;;;;;;;3.89;97.77;101916.34;5093235;28;20468;-76
2022/01/22 07:03:56;;;;;;;27.67;10.37;;;;;;;3.87;97.37;101918.28;5093101;28;20024;-76
2022/01/22 07:06:22;;;;;;;29.27;9.57;;;;;;;3.89;97.69;101918.19;5093589;28;20728;-75
2022/01/22 07:08:48;;;;;;;24.73;8.27;;;;;;;3.94;97.66;101916.00;5093044;28;20044;-76
2022/01/22 07:11:15;;;;;;;24.88;9.82;;;;;;;3.92;97.51;101920.59;5091998;28;20485;-76
2022/01/22 07:13:41;;;;;;;30.25;9.95;;;;;;;3.91;97.71;101918.91;5092817;28;20032;-76
2022/01/22 07:16:07;;;;;;;29.50;8.85;;;;;;;3.92;97.39;101915.25;5093241;28;20363;-76
2022/01/22 07:18:34;;;;;;;27.17;9.90;;;;;;;3.95;97.73;101925.66;5093094;28;20459;-75
2022/01/22 07:21:08;;;;;;;30.50;10.68;;;;;;;4.00;97.50;101926.97;5092818;28;20044;-76
2022/01/22 07:26:04;;;;;;;36.50;10.02;;;;;;;3.98;97.65;101930.75;5093040;28;20066;-76
2022/01/22 07:28:30;;;;;;;29.33;10.88;;;;;;;4.05;97.40;101932.78;5093333;28;20050;-76
2022/01/22 07:30:56;;;;;;;30.38;10.82;;;;;;;4.06;97.36;101944.31;5091950;28;20029;-76
2022/01/22 07:33:22;;;;;;;44.38;12.57;;;;;;;4.02;97.82;101938.38;5093149;28;20036;-76
2022/01/22 07:35:48;;;;;;;31.70;10.20;;;;;;;4.02;97.17;101940.19;5092969;28;20028;-76
2022/01/22 07:38:13;;;;;;;29.55;10.95;;;;;;;4.04;97.72;101948.91;5092560;28;20032;-76
2022/01/22 07:40:39;;;;;;;33.90;10.65;;;;;;;3.99;97.83;101953.78;5091607;28;20031;-77
2022/01/22 07:43:05;;;;;;;38.05;11.48;;;;;;;4.08;98.18;101947.69;5092676;28;20603;-77
2022/01/22 07:45:30;;;;;;;32.28;10.98;;;;;;;4.22;97.97;101950.06;5092563;28;20107;-76
2022/01/22 07:47:56;;;;;;;34.53;12.68;;;;;;;4.13;97.35;101950.81;5092792;28;20115;-77
2022/01/22 07:50:21;;;;;;;35.50;11.43;;;;;;;4.21;97.75;101950.19;5092305;28;20039;-76
2022/01/22 07:52:47;;;;;;;36.78;12.27;;;;;;;4.11;97.49;101953.66;5092330;28;20086;-77
2022/01/22 07:55:13;;;;;;;31.83;9.43;;;;;;;4.32;97.44;101960.81;5092656;28;20035;-76
2022/01/22 07:57:38;;;;;;;31.05;12.13;;;;;;;4.26;97.71;101956.88;5092326;28;20048;-76
2022/01/22 08:00:06;;;;;;;35.58;11.40;;;;;;;4.47;97.42;101962.25;5092400;28;20055;-76
2022/01/22 08:02:31;;;;;;;38.40;12.15;;;;;;;4.30;96.77;101958.28;5095279;28;20428;-76
2022/01/22 08:04:57;;;;;;;33.80;11.82;;;;;;;4.55;97.37;101962.44;5096262;28;20028;-76
2022/01/22 08:07:22;;;;;;;32.60;11.53;;;;;;;4.61;96.78;101969.94;5096824;28;20447;-76
2022/01/22 08:09:48;;;;;;;33.40;10.87;;;;;;;4.50;96.62;101962.81;5096773;28;20247;-76
2022/01/22 08:12:13;;;;;;;30.60;11.63;;;;;;;4.47;96.37;101957.75;5094771;28;20273;-76
2022/01/22 08:14:39;;;;;;;32.70;10.60;;;;;;;4.50;96.05;101962.81;5095024;28;20123;-76
2022/01/22 08:17:04;;;;;;;36.95;11.77;;;;;;;4.77;95.96;101965.00;5096206;28;20450;-76
2022/01/22 08:19:30;;;;;;;34.13;11.95;;;;;;;4.74;96.12;101969.75;5095758;28;20038;-76
2022/01/22 08:21:55;;;;;;;36.80;10.23;;;;;;;4.64;95.09;101972.38;5095705;28;20035;-76
2022/01/22 08:24:24;;;;;;;33.08;9.95;;;;;;;4.80;95.66;101966.56;5095957;28;20395;-76
2022/01/22 08:27:05;;;;;;;32.95;11.65;;;;;;;4.71;94.90;101959.31;5095817;28;20440;-76
2022/01/22 08:29:31;;;;;;;32.08;10.98;;;;;;;4.78;95.35;101958.69;5096177;28;20119;-76
2022/01/22 08:32:07;;;;;;;27.73;9.98;;;;;;;4.80;95.11;101955.88;5096464;28;20107;-77
2022/01/22 08:37:16;;;;;;;31.55;10.20;;;;;;;4.59;95.86;101968.38;5096012;28;20111;-76
2022/01/22 08:39:43;;;;;;;33.10;11.13;;;;;;;4.45;95.26;101967.72;5095675;28;20111;-76
2022/01/22 08:42:09;;;;;;;27.27;10.55;;;;;;;4.63;95.66;101964.47;5095440;28;20258;-77
2022/01/22 08:44:34;;;;;;;;;;;;;;;4.62;94.74;101952.94;5096233;28;20032;-76
2022/01/22 08:47:00;;;;;;;27.73;9.05;;;;;;;4.57;94.95;101943.63;5095643;28;19919;-78
2022/01/22 08:49:26;;;;;;;31.27;10.40;;;;;;;4.81;95.33;101952.25;5094592;28;20036;-77
2022/01/22 08:51:51;;;;;;;33.95;12.02;;;;;;;4.55;94.92;101957.09;5095597;28;20032;-75
2022/01/22 08:54:17;;;;;;;34.03;10.73;;;;;;;4.66;94.92;101959.69;5095606;28;20031;-75
2022/01/22 08:56:42;;;;;;;34.17;11.60;;;;;;;4.53;95.24;101957.22;5095393;28;20482;-75
2022/01/22 08:59:09;;;;;;;38.73;11.97;;;;;;;4.52;95.46;101960.88;5095324;28;20048;-75
2022/01/22 09:01:37;;;;;;;28.45;11.15;;;;;;;4.69;95.41;101964.78;5094197;28;20258;-75
2022/01/22 09:04:03;;;;;;;44.50;12.80;;;;;;;4.69;95.24;101967.47;5095284;28;20386;-74
2022/01/22 09:06:28;;;;;;;39.00;11.88;;;;;;;4.47;95.06;101972.94;5093959;28;20024;-74
2022/01/22 09:09:00;;;;;;;32.95;10.40;;;;;;;4.53;95.92;101970.56;5093904;28;20042;-75
2022/01/22 09:11:25;;;;;;;36.42;11.98;;;;;;;4.55;96.12;101967.78;5095059;28;20117;-75
2022/01/22 09:13:51;;;;;;;41.47;12.60;;;;;;;4.61;95.89;101971.78;5094652;28;20052;-75
2022/01/22 09:16:16;;;;;;;37.85;11.02;;;;;;;4.48;95.70;101971.91;5094974;28;20063;-74
2022/01/22 09:18:42;;;;;;;39.25;13.43;;;;;;;4.77;96.20;101990.88;5094946;28;20050;-75
2022/01/22 09:21:08;;;;;;;38.63;12.95;;;;;;;4.66;95.48;101988.25;5095157;28;20453;-75
2022/01/22 09:23:34;;;;;;;38.35;12.25;;;;;;;4.73;96.08;101982.25;5096832;28;20489;-76
2022/01/22 09:26:00;;;;;;;38.30;12.75;;;;;;;4.73;94.41;101987.59;5105026;28;20036;-80
2022/01/22 09:28:26;;;;;;;;;;;;;;;4.76;95.46;101997.19;5107173;28;20035;-80
2022/01/22 09:30:51;;;;;;;37.45;11.07;;;;;;;4.71;95.57;101988.69;5105533;28;19961;-82
2022/01/22 09:33:17;;;;;;;32.15;10.82;;;;;;;4.71;95.77;101978.00;5099907;28;20066;-78
2022/01/22 09:35:42;;;;;;;38.25;11.07;;;;;;;4.72;94.88;101993.91;5097784;28;20027;-78
2022/01/22 09:38:08;;;;;;;29.35;9.25;;;;;;;4.67;95.74;101987.25;5098152;28;20016;-79
2022/01/22 09:40:33;;;;;;;28.15;10.00;;;;;;;4.60;95.57;101994.94;5098891;28;20043;-82
2022/01/22 09:42:59;;;;;;;29.80;7.78;;;;;;;4.66;94.98;101982.91;5098590;28;20024;-80
2022/01/22 09:45:28;;;;;;;;;;;;;;;4.43;95.58;101990.16;5097751;28;20032;-79
2022/01/22 09:47:58;;;;;;;25.05;8.43;;;;;;;4.54;95.86;101995.44;5099259;28;20010;-81
2022/01/22 09:50:24;;;;;;;27.17;8.70;;;;;;;4.62;95.87;102001.00;5096408;28;20027;-80
2022/01/22 09:52:50;;;;;;;24.40;8.60;;;;;;;4.51;95.75;102001.03;5097426;28;20111;-79
2022/01/22 09:55:16;;;;;;;21.23;8.20;;;;;;;4.44;95.81;102003.38;5095561;28;20063;-80
2022/01/22 09:57:44;;;;;;;23.92;8.60;;;;;;;4.46;95.83;102006.78;5096668;28;20112;-80
2022/01/22 10:00:14;;;;;;;28.38;9.43;;;;;;;4.39;95.83;102002.06;5097550;28;20144;-80
2022/01/22 10:02:46;;;;;;;26.35;8.45;;;;;;;4.67;96.67;102008.59;5097087;28;20028;-79
2022/01/22 10:05:34;;;;;;;23.50;8.77;;;;;;;4.58;95.70;102007.56;5097169;28;20111;-79
2022/01/22 10:08:18;;;;;;;22.70;7.60;;;;;;;4.46;95.71;102005.94;5097047;28;20028;-79
2022/01/22 10:10:45;;;;;;;26.88;8.40;;;;;;;4.67;95.88;102005.94;5095185;28;20028;-79
2022/01/22 10:13:10;;;;;;;27.40;9.48;;;;;;;4.63;95.82;102002.72;5095507;28;20049;-79
2022/01/22 10:15:38;;;;;;;28.42;10.27;;;;;;;4.50;95.61;102007.34;5097803;28;20479;-79
2022/01/22 10:18:03;;;;;;;32.67;11.88;;;;;;;4.53;95.75;102012.44;5097176;28;20032;-79
2022/01/22 10:20:32;;;;;;;33.20;10.65;;;;;;;4.58;96.41;102007.56;5097308;28;20039;-79
2022/01/22 10:23:07;;;;;;;33.97;11.73;;;;;;;4.58;96.61;102012.06;5095514;28;20122;-79
2022/01/22 10:25:43;;;;;;;35.42;11.68;;;;;;;4.56;96.52;102011.34;5097897;28;20028;-80
2022/01/22 10:28:19;;;;;;;38.47;12.07;;;;;;;4.71;95.67;102010.91;5097189;28;20058;-80
2022/01/22 10:33:40;;;;;;;34.65;10.57;;;;;;;4.68;96.03;102013.81;5092155;28;20044;-78
2022/01/22 10:36:18;;;;;;;33.37;10.43;;;;;;;4.68;95.72;102016.50;5096621;28;20059;-79
2022/01/22 10:38:49;;;;;;;38.55;12.43;;;;;;;4.69;95.85;102012.00;5096675;28;20281;-78
2022/01/22 10:41:18;;;;;;;37.97;13.20;;;;;;;4.58;95.94;102012.91;5096973;28;20020;-79
2022/01/22 10:43:54;;;;;;;37.50;12.07;;;;;;;4.52;96.23;102011.59;5095923;28;20389;-80
2022/01/22 10:49:18;;;;;;;37.13;12.20;;;;;;;4.52;96.94;102011.59;5099705;28;20040;-80
2022/01/22 10:51:50;;;;;;;40.50;13.00;;;;;;;4.70;96.75;102017.22;5097247;28;20078;-80
2022/01/22 10:54:22;;;;;;;45.70;13.98;;;;;;;4.66;96.29;102009.63;5096237;28;20038;-80
2022/01/22 10:56:48;;;;;;;33.53;12.30;;;;;;;4.67;97.10;102008.59;5096585;28;20038;-80
2022/01/22 10:59:17;;;;;;;36.30;11.48;;;;;;;4.62;96.58;102003.69;5098177;28;20040;-80
2022/01/22 11:01:54;;;;;;;37.92;14.68;;;;;;;4.71;96.47;102010.06;5098242;28;20088;-80
2022/01/22 11:04:25;;;;;;;36.28;12.70;;;;;;;4.75;96.83;102011.50;5095455;28;20032;-80
2022/01/22 11:06:57;;;;;;;38.13;11.82;;;;;;;4.77;96.96;102010.41;5097574;28;20062;-81
2022/01/22 11:09:26;;;;;;;35.47;12.00;;;;;;;4.76;96.83;102007.84;5099832;28;20091;-81
2022/01/22 11:11:52;;;;;;;35.63;10.43;;;;;;;4.89;96.74;102006.69;5097915;28;20032;-83
2022/01/22 11:14:19;;;;;;;24.92;8.80;;;;;;;4.86;96.85;102011.44;5101462;28;20109;-81
2022/01/22 11:16:47;;;;;;;22.30;8.15;;;;;;;4.83;96.51;102004.56;5096198;28;20040;-81
2022/01/22 11:19:18;;;;;;;24.50;8.18;;;;;;;4.82;97.00;101999.34;5097569;28;20046;-83
2022/01/22 11:21:47;;;;;;;14.05;5.40;;;;;;;4.78;96.61;101995.22;5098546;28;20497;-81
2022/01/22 11:24:14;;;;;;;17.55;5.40;;;;;;;4.76;96.31;102007.84;5097850;28;20028;-81
2022/01/22 11:26:45;;;;;;;14.13;5.63;;;;;;;4.69;96.60;101998.66;5098158;28;20059;-81
2022/01/22 11:29:14;;;;;;;14.93;5.13;;;;;;;4.75;96.42;101998.16;5098068;28;20036;-79
2022/01/22 11:31:45;;;;;;;18.52;5.60;;;;;;;4.76;96.62;101997.19;5096945;28;20032;-80
2022/01/22 11:34:15;;;;;;;17.73;5.90;;;;;;;4.76;96.57;101999.84;5097955;28;20091;-81
2022/01/22 11:36:59;;;;;;;20.55;6.60;;;;;;;4.82;96.86;102005.53;5099823;28;20043;-80
2022/01/22 11:39:26;;;;;;;13.93;4.82;;;;;;;4.84;96.14;102013.38;5101148;28;20474;-80
2022/01/22 11:42:01;;;;;;;12.05;4.50;;;;;;;4.89;96.30;102011.19;5099502;28;20119;-79
2022/01/22 11:45:02;;;;;;;12.93;4.35;;;;;;;4.90;96.43;102015.56;5101470;28;20063;-80
2022/01/22 11:47:41;;;;;;;13.20;4.97;;;;;;;4.89;96.42;102012.03;5101384;28;20028;-79
2022/01/22 11:50:11;;;;;;;15.73;4.70;;;;;;;4.90;95.60;102012.88;5098793;28;20028;-79
2022/01/22 11:52:41;;;;;;;13.23;4.88;;;;;;;4.85;96.04;102001.72;5106624;28;20048;-79
2022/01/22 11:55:15;;;;;;;15.40;3.80;;;;;;;4.85;95.78;102001.72;5101895;28;20064;-80
2022/01/22 11:57:44;;;;;;;13.93;4.55;;;;;;;4.80;95.58;101999.47;5102487;28;20079;-82
2022/01/22 12:00:17;;;;;;;11.77;4.68;;;;;;;4.82;95.67;102002.00;5102910;28;20081;-80
2022/01/22 12:02:42;;;;;;;14.63;5.30;;;;;;;4.82;96.21;102002.00;5103691;28;20135;-79
2022/01/22 12:05:08;;;;;;;19.08;4.90;;;;;;;4.82;96.18;102004.69;5101814;28;20051;-82
2022/01/22 12:07:37;;;;;;;19.80;4.97;;;;;;;4.86;96.43;102000.75;5102499;28;20024;-81
2022/01/22 12:10:21;;;;;;;26.95;5.93;;;;;;;4.80;95.53;102001.28;5100603;28;20085;-80
2022/01/22 12:15:20;;;;;;;17.63;6.28;;;;;;;4.91;96.01;102006.56;5098876;28;20032;-77
2022/01/22 12:17:56;;;;;;;21.35;7.32;;;;;;;4.93;96.02;102004.63;5098621;28;20028;-78
2022/01/22 12:21:31;;;;;;;15.98;6.20;;;;;;;4.91;95.85;102000.38;5097495;28;20032;-78
2022/01/22 12:23:33;;;;;;;18.77;7.38;;;;;;;4.87;95.77;101995.28;5098656;28;20490;-80
2022/01/22 12:26:01;;;;;;;17.45;6.43;;;;;;;4.83;95.66;101991.19;5099291;28;20028;-82
2022/01/22 12:28:35;;;;;;;17.98;4.95;;;;;;;4.82;95.63;101986.00;5098909;28;20393;-79
2022/01/22 12:31:05;;;;;;;18.77;6.35;;;;;;;4.85;95.22;101967.84;5097587;28;20474;-80
2022/01/22 12:33:31;;;;;;;18.83;5.85;;;;;;;4.81;95.08;101973.59;5098406;28;20036;-77
2022/01/22 12:35:59;;;;;;;14.03;5.47;;;;;;;4.77;94.87;101990.88;5097907;28;20054;-79
2022/01/22 12:38:36;;;;;;;12.55;4.75;;;;;;;4.77;95.45;101996.19;5096840;28;20253;-78
2022/01/22 12:41:27;;;;;;;13.00;4.03;;;;;;;4.75;95.20;101998.16;5095871;28;20458;-80
2022/01/22 12:44:05;;;;;;;10.88;4.40;;;;;;;4.77;95.43;102006.88;5096183;28;20024;-77
2022/01/22 12:46:32;;;;;;;16.25;5.18;;;;;;;4.76;94.92;102000.69;5096004;28;20039;-77
2022/01/22 12:48:57;;;;;;;14.68;4.70;;;;;;;4.76;95.39;101997.19;5094680;28;20034;-77
2022/01/22 12:51:26;;;;;;;19.40;4.60;;;;;;;4.73;95.56;102002.75;5097081;28;20514;-78
2022/01/22 12:53:53;;;;;;;14.23;5.10;;;;;;;4.74;95.35;102007.13;5095910;28;20442;-77
2022/01/22 12:59:07;;;;;;;14.93;5.40;;;;;;;4.79;95.72;102007.59;5095366;28;20052;-77
2022/01/22 13:01:34;;;;;;;15.57;4.78;;;;;;;4.75;95.44;102007.00;5094107;28;20024;-77
2022/01/22 13:04:04;;;;;;;10.57;4.60;;;;;;;4.74;95.40;102001.78;5094190;28;20110;-76
2022/01/22 13:06:48;;;;;;;10.95;4.32;;;;;;;4.73;95.39;101998.28;5095507;28;20028;-76
2022/01/22 13:09:14;;;;;;;17.15;4.55;;;;;;;4.74;95.63;102005.31;5094162;28;20059;-78
2022/01/22 13:11:48;;;;;;;12.27;4.75;;;;;;;4.71;95.46;102004.72;5094349;28;20521;-76